createdAt,value
2018-02-14T00:01:37.026Z,2.40
2018-02-14T00:04:05.342Z,2.40
2018-02-14T00:06:33.647Z,2.40
2018-02-14T00:09:01.951Z,2.40
2018-02-14T00:11:31.038Z,2.30
2018-02-14T00:13:59.374Z,2.30
2018-02-14T00:16:28.462Z,2.30
2018-02-14T00:18:57.530Z,2.20
2018-02-14T00:21:26.608Z,2.30
2018-02-14T00:23:54.902Z,2.20
2018-02-14T00:26:23.202Z,2.30
2018-02-14T00:28:52.282Z,2.20
2018-02-14T00:31:20.580Z,2.20
2018-02-14T00:33:48.886Z,2.20
2018-02-14T00:36:17.970Z,2.10
2018-02-14T00:38:46.282Z,2.10
2018-02-14T00:41:15.346Z,2.10
2018-02-14T00:43:43.650Z,2.10
2018-02-14T00:46:11.967Z,2.10
2018-02-14T00:48:41.044Z,2.00
2018-02-14T00:51:10.108Z,2.00
2018-02-14T00:53:38.424Z,2.00
2018-02-14T00:56:06.720Z,2.00
2018-02-14T00:58:35.022Z,2.00
2018-02-14T01:01:03.335Z,2.00
2018-02-14T01:03:31.672Z,1.90
2018-02-14T01:05:59.970Z,1.90
2018-02-14T01:08:28.282Z,1.90
2018-02-14T01:10:56.608Z,1.90
2018-02-14T01:13:24.985Z,1.90
2018-02-14T01:15:53.348Z,1.90
2018-02-14T01:18:22.429Z,1.90
2018-02-14T01:20:50.765Z,1.90
2018-02-14T01:23:19.068Z,1.90
2018-02-14T01:25:47.393Z,1.90
2018-02-14T01:28:16.474Z,1.90
2018-02-14T01:30:44.774Z,1.90
2018-02-14T01:33:13.848Z,1.80
2018-02-14T01:35:42.146Z,1.80
2018-02-14T01:38:10.456Z,1.80
2018-02-14T01:40:38.794Z,1.80
2018-02-14T01:43:07.096Z,1.80
2018-02-14T01:45:36.173Z,1.80
2018-02-14T01:48:04.447Z,1.70
2018-02-14T01:50:39.549Z,1.70
2018-02-14T01:53:07.842Z,1.70
2018-02-14T01:55:36.928Z,1.70
2018-02-14T01:58:05.228Z,1.70
2018-02-14T02:00:33.555Z,1.70
2018-02-14T02:03:02.603Z,1.60
2018-02-14T02:05:30.935Z,1.60
2018-02-14T02:08:00.034Z,1.60
2018-02-14T02:10:29.116Z,1.60
2018-02-14T02:12:57.511Z,1.60
2018-02-14T02:15:25.850Z,1.60
2018-02-14T02:17:54.930Z,1.60
2018-02-14T02:20:23.255Z,1.60
2018-02-14T02:22:51.568Z,1.60
2018-02-14T02:25:20.648Z,1.60
2018-02-14T02:27:49.820Z,1.50
2018-02-14T02:30:18.900Z,1.50
2018-02-14T02:32:47.181Z,1.50
2018-02-14T02:35:15.484Z,1.50
2018-02-14T02:37:43.799Z,1.50
2018-02-14T02:40:29.791Z,1.50
2018-02-14T02:42:58.962Z,1.40
2018-02-14T02:45:27.256Z,1.40
2018-02-14T02:47:55.550Z,1.40
2018-02-14T02:50:23.880Z,1.40
2018-02-14T02:52:52.180Z,1.40
2018-02-14T02:55:20.505Z,1.40
2018-02-14T02:57:49.578Z,1.40
2018-02-14T03:00:17.895Z,1.40
2018-02-14T03:02:46.970Z,1.30
2018-02-14T03:05:15.277Z,1.30
2018-02-14T03:07:44.337Z,1.30
2018-02-14T03:10:12.627Z,1.30
2018-02-14T03:12:40.937Z,1.30
2018-02-14T03:15:10.026Z,1.30
2018-02-14T03:17:39.091Z,1.20
2018-02-14T03:20:07.492Z,1.20
2018-02-14T03:22:35.783Z,1.20
2018-02-14T03:25:04.970Z,1.20
2018-02-14T03:27:33.255Z,1.20
2018-02-14T03:30:01.592Z,1.20
2018-02-14T03:32:29.893Z,1.10
2018-02-14T03:34:58.193Z,1.10
2018-02-14T03:37:26.499Z,1.10
2018-02-14T03:39:55.555Z,1.10
2018-02-14T03:42:24.669Z,1.10
2018-02-14T03:44:52.983Z,1.00
2018-02-14T03:47:22.061Z,1.10
2018-02-14T03:49:50.367Z,1.00
2018-02-14T03:52:19.437Z,1.00
2018-02-14T03:54:47.857Z,1.00
2018-02-14T03:57:16.933Z,1.00
2018-02-14T03:59:46.020Z,1.00
2018-02-14T04:02:14.440Z,1.00
2018-02-14T04:04:42.757Z,1.00
2018-02-14T04:07:11.080Z,1.00
2018-02-14T04:09:39.431Z,1.00
2018-02-14T04:12:07.759Z,1.00
2018-02-14T04:14:36.849Z,1.00
2018-02-14T04:17:05.163Z,1.00
2018-02-14T04:19:33.464Z,1.00
2018-02-14T04:22:01.823Z,1.00
2018-02-14T04:24:30.154Z,1.00
2018-02-14T04:26:58.495Z,0.90
2018-02-14T04:29:26.801Z,0.90
2018-02-14T04:31:55.107Z,0.90
2018-02-14T04:34:24.945Z,0.90
2018-02-14T04:36:54.017Z,0.90
2018-02-14T04:39:22.341Z,0.90
2018-02-14T04:41:51.494Z,0.80
2018-02-14T04:44:19.836Z,0.80
2018-02-14T04:46:48.136Z,0.80
2018-02-14T04:49:16.446Z,0.80
2018-02-14T04:51:44.745Z,0.80
2018-02-14T04:54:13.812Z,0.80
2018-02-14T04:56:42.165Z,0.70
2018-02-14T04:59:10.450Z,0.80
2018-02-14T05:01:38.746Z,0.80
2018-02-14T05:04:07.051Z,0.70
2018-02-14T05:06:35.347Z,0.70
2018-02-14T05:09:03.635Z,0.70
2018-02-14T05:11:32.783Z,0.70
2018-02-14T05:14:01.197Z,0.70
2018-02-14T05:16:29.531Z,0.70
2018-02-14T05:18:57.901Z,0.70
2018-02-14T05:21:26.963Z,0.60
2018-02-14T05:23:55.648Z,0.60
2018-02-14T05:26:24.667Z,0.60
2018-02-14T05:28:53.747Z,0.60
2018-02-14T05:31:22.111Z,0.60
2018-02-14T05:33:50.436Z,0.60
2018-02-14T05:36:19.496Z,0.60
2018-02-14T05:38:47.857Z,0.60
2018-02-14T05:41:16.184Z,0.60
2018-02-14T05:43:44.487Z,0.60
2018-02-14T05:46:13.607Z,0.60
2018-02-14T05:48:42.649Z,0.50
2018-02-14T05:51:10.951Z,0.50
2018-02-14T05:53:39.257Z,0.50
2018-02-14T05:56:07.621Z,0.50
2018-02-14T05:58:36.719Z,0.50
2018-02-14T06:01:05.014Z,0.50
2018-02-14T06:03:34.077Z,0.50
2018-02-14T06:06:02.386Z,0.50
2018-02-14T06:08:31.453Z,0.50
2018-02-14T06:10:59.757Z,0.50
2018-02-14T06:13:28.087Z,0.50
2018-02-14T06:15:56.510Z,0.50
2018-02-14T06:18:24.869Z,0.50
2018-02-14T06:20:53.902Z,0.50
2018-02-14T06:23:22.997Z,0.50
2018-02-14T06:25:51.298Z,0.40
2018-02-14T06:28:20.383Z,0.40
2018-02-14T06:30:48.699Z,0.40
2018-02-14T06:33:17.032Z,0.40
2018-02-14T06:35:45.455Z,0.40
2018-02-14T06:38:13.761Z,0.40
2018-02-14T06:40:42.062Z,0.40
2018-02-14T06:43:10.406Z,0.40
2018-02-14T06:45:38.721Z,0.40
2018-02-14T06:48:07.027Z,0.40
2018-02-14T06:50:35.323Z,0.40
2018-02-14T06:53:03.668Z,0.40
2018-02-14T06:55:31.992Z,0.40
2018-02-14T06:58:01.091Z,0.40
2018-02-14T07:00:30.152Z,0.40
2018-02-14T07:02:58.535Z,0.40
2018-02-14T07:05:26.895Z,0.40
2018-02-14T07:07:55.202Z,0.40
2018-02-14T07:10:23.527Z,0.40
2018-02-14T07:12:52.619Z,0.40
2018-02-14T07:15:21.702Z,0.40
2018-02-14T07:17:50.049Z,0.40
2018-02-14T07:20:18.351Z,0.40
2018-02-14T07:22:46.673Z,0.40
2018-02-14T07:25:15.763Z,0.50
2018-02-14T07:27:44.847Z,0.50
2018-02-14T07:30:13.139Z,0.50
2018-02-14T07:32:42.249Z,0.50
2018-02-14T07:35:12.193Z,0.60
2018-02-14T07:37:40.495Z,0.60
2018-02-14T07:40:08.811Z,0.60
2018-02-14T07:42:37.123Z,0.60
2018-02-14T07:45:05.432Z,0.60
2018-02-14T07:47:33.749Z,0.70
2018-02-14T07:50:02.079Z,0.70
2018-02-14T07:52:30.372Z,0.70
2018-02-14T07:54:58.730Z,0.70
2018-02-14T07:57:27.031Z,0.70
2018-02-14T07:59:55.363Z,0.80
2018-02-14T08:02:23.693Z,0.80
2018-02-14T08:04:52.023Z,0.80
2018-02-14T08:07:20.329Z,0.90
2018-02-14T08:09:49.416Z,1.00
2018-02-14T08:12:17.799Z,0.90
2018-02-14T08:14:46.911Z,1.00
2018-02-14T08:17:15.976Z,1.10
2018-02-14T08:19:44.326Z,1.10
2018-02-14T08:22:12.649Z,1.10
2018-02-14T08:24:40.971Z,1.20
2018-02-14T08:27:09.284Z,1.20
2018-02-14T08:29:37.591Z,1.30
2018-02-14T08:32:05.915Z,1.30
2018-02-14T08:34:34.227Z,1.40
2018-02-14T08:37:02.532Z,1.40
2018-02-14T08:39:30.867Z,1.50
2018-02-14T08:41:59.191Z,1.60
2018-02-14T08:44:27.505Z,1.60
2018-02-14T08:46:57.177Z,1.70
2018-02-14T08:49:25.479Z,1.70
2018-02-14T08:51:53.793Z,1.80
2018-02-14T08:54:22.888Z,1.90
2018-02-14T08:56:51.958Z,1.90
2018-02-14T08:59:20.271Z,1.90
2018-02-14T09:01:49.454Z,2.10
2018-02-14T09:04:17.773Z,2.10
2018-02-14T09:06:46.439Z,2.20
2018-02-14T09:09:15.549Z,2.30
2018-02-14T09:11:43.855Z,2.30
2018-02-14T09:14:12.153Z,2.30
2018-02-14T09:16:40.484Z,2.40
2018-02-14T09:19:09.562Z,2.50
2018-02-14T09:21:37.860Z,2.50
2018-02-14T09:24:06.921Z,2.60
2018-02-14T09:26:35.222Z,2.60
2018-02-14T09:29:03.557Z,2.70
2018-02-14T09:31:31.879Z,2.70
2018-02-14T09:34:00.192Z,2.80
2018-02-14T09:36:29.257Z,2.90
2018-02-14T09:38:57.548Z,2.90
2018-02-14T09:41:25.872Z,3.00
2018-02-14T09:43:54.218Z,3.00
2018-02-14T09:46:23.315Z,3.10
2018-02-14T09:48:51.624Z,3.10
2018-02-14T09:51:19.937Z,3.10
2018-02-14T09:53:48.254Z,3.20
2018-02-14T09:56:16.582Z,3.20
2018-02-14T09:58:44.898Z,3.30
2018-02-14T10:01:13.215Z,3.30
2018-02-14T10:03:42.286Z,3.40
2018-02-14T10:06:10.616Z,3.40
2018-02-14T10:08:38.936Z,3.50
2018-02-14T10:11:07.280Z,3.50
2018-02-14T10:13:35.586Z,3.60
2018-02-14T10:16:04.672Z,3.70
2018-02-14T10:18:32.971Z,3.70
2018-02-14T10:21:01.259Z,3.70
2018-02-14T10:23:29.570Z,3.80
2018-02-14T10:25:57.892Z,3.80
2018-02-14T10:28:26.207Z,3.90
2018-02-14T10:30:54.516Z,3.90
2018-02-14T10:33:22.836Z,4.00
2018-02-14T10:35:51.142Z,4.00
2018-02-14T10:38:19.440Z,4.10
2018-02-14T10:40:47.742Z,4.20
2018-02-14T10:43:16.062Z,4.20
2018-02-14T10:45:44.352Z,4.30
2018-02-14T10:48:12.773Z,4.30
2018-02-14T10:50:41.853Z,4.40
2018-02-14T10:53:10.176Z,4.40
2018-02-14T10:55:38.526Z,4.40
2018-02-14T10:58:06.820Z,4.50
2018-02-14T11:03:42.051Z,4.60
2018-02-14T11:06:13.228Z,4.60
2018-02-14T11:08:42.400Z,4.80
2018-02-14T11:11:10.722Z,4.80
2018-02-14T11:13:39.789Z,5.00
2018-02-14T11:16:08.125Z,4.90
2018-02-14T11:18:36.458Z,5.00
2018-02-14T11:21:04.806Z,5.00
2018-02-14T11:23:33.119Z,5.10
2018-02-14T11:26:01.438Z,5.20
2018-02-14T11:28:30.614Z,5.30
2018-02-14T11:30:58.938Z,5.30
2018-02-14T11:33:27.252Z,5.40
2018-02-14T11:35:55.602Z,5.50
2018-02-14T11:38:23.890Z,5.50
2018-02-14T11:40:52.212Z,5.60
2018-02-14T11:43:20.534Z,5.70
2018-02-14T11:45:50.333Z,5.90
2018-02-14T11:48:19.073Z,5.90
2018-02-14T11:50:47.398Z,6.00
2018-02-14T11:53:15.797Z,6.10
2018-02-14T11:55:44.862Z,6.20
2018-02-14T11:58:13.214Z,6.20
2018-02-14T12:00:41.571Z,6.30
2018-02-14T12:03:10.665Z,6.40
2018-02-14T12:05:39.792Z,6.50
2018-02-14T12:08:08.100Z,6.50
2018-02-14T12:10:36.432Z,6.60
2018-02-14T12:13:05.534Z,6.70
2018-02-14T12:15:34.622Z,6.80
2018-02-14T12:18:03.738Z,6.90
2018-02-14T12:20:32.185Z,6.80
2018-02-14T12:23:00.499Z,7.00
2018-02-14T12:25:29.570Z,7.10
2018-02-14T12:27:57.877Z,7.10
2018-02-14T12:30:27.082Z,7.10
2018-02-14T12:32:55.496Z,7.10
2018-02-14T12:35:23.796Z,7.10
2018-02-14T12:37:52.152Z,7.20
2018-02-14T12:40:20.462Z,7.30
2018-02-14T12:42:48.781Z,7.40
2018-02-14T12:45:17.890Z,7.50
2018-02-14T12:47:46.965Z,7.60
2018-02-14T12:50:15.284Z,7.60
2018-02-14T12:52:43.585Z,7.60
2018-02-14T12:55:11.890Z,7.60
2018-02-14T12:57:40.194Z,7.60
2018-02-14T13:00:08.499Z,7.60
2018-02-14T13:02:37.594Z,7.70
2018-02-14T13:05:06.698Z,7.70
2018-02-14T13:07:35.776Z,7.70
2018-02-14T13:10:04.120Z,7.70
2018-02-14T13:12:32.425Z,7.70
2018-02-14T13:15:01.532Z,7.70
2018-02-14T13:17:29.870Z,7.70
2018-02-14T13:19:58.344Z,7.70
2018-02-14T13:22:26.689Z,7.70
2018-02-14T13:24:55.002Z,7.70
2018-02-14T13:27:23.302Z,7.70
2018-02-14T13:29:51.628Z,7.70
2018-02-14T13:32:19.936Z,7.80
2018-02-14T13:34:48.986Z,7.80
2018-02-14T13:37:18.131Z,7.80
2018-02-14T13:39:47.210Z,7.90
2018-02-14T13:42:15.499Z,7.90
2018-02-14T13:44:44.654Z,7.80
2018-02-14T13:47:12.958Z,7.80
2018-02-14T13:49:41.280Z,7.80
2018-02-14T13:52:10.394Z,7.70
2018-02-14T13:54:38.709Z,7.70
2018-02-14T13:57:07.022Z,7.70
2018-02-14T13:59:35.382Z,7.70
2018-02-14T14:02:03.686Z,7.60
2018-02-14T14:04:31.989Z,7.60
2018-02-14T14:07:01.070Z,7.50
2018-02-14T14:09:30.152Z,7.50
2018-02-14T14:11:59.220Z,7.50
2018-02-14T14:14:27.536Z,7.50
2018-02-14T14:16:56.579Z,7.70
2018-02-14T14:19:24.880Z,7.60
2018-02-14T14:21:53.382Z,7.70
2018-02-14T14:24:21.693Z,7.70
2018-02-14T14:26:49.990Z,7.70
2018-02-14T14:29:19.076Z,7.70
2018-02-14T14:31:48.177Z,7.70
2018-02-14T14:34:16.491Z,7.70
2018-02-14T14:36:44.796Z,7.70
2018-02-14T14:39:13.090Z,7.70
2018-02-14T14:41:41.435Z,7.70
2018-02-14T14:44:09.771Z,7.70
2018-02-14T14:46:38.858Z,7.80
2018-02-14T14:49:07.164Z,7.80
2018-02-14T14:51:35.451Z,7.90
2018-02-14T14:54:04.588Z,7.90
2018-02-14T14:56:32.866Z,7.90
2018-02-14T14:59:01.167Z,7.90
2018-02-14T15:01:29.630Z,7.90
2018-02-14T15:03:57.938Z,7.90
2018-02-14T15:06:26.582Z,7.90
2018-02-14T15:08:54.893Z,7.90
2018-02-14T15:11:23.223Z,7.90
2018-02-14T15:13:51.528Z,7.90
2018-02-14T15:16:19.846Z,7.90
2018-02-14T15:18:48.141Z,7.90
2018-02-14T15:21:16.460Z,7.90
2018-02-14T15:23:45.644Z,7.80
2018-02-14T15:26:13.977Z,7.80
2018-02-14T15:28:42.282Z,7.70
2018-02-14T15:31:10.604Z,7.70
2018-02-14T15:33:39.700Z,7.60
2018-02-14T15:36:08.783Z,7.60
2018-02-14T15:38:38.636Z,7.50
2018-02-14T15:41:06.940Z,7.50
2018-02-14T15:43:35.228Z,7.50
2018-02-14T15:46:03.542Z,7.40
2018-02-14T15:48:31.864Z,7.40
2018-02-14T15:51:00.173Z,7.30
2018-02-14T15:53:28.521Z,7.20
2018-02-14T15:55:57.599Z,7.10
2018-02-14T15:58:25.932Z,7.10
2018-02-14T16:00:54.244Z,7.00
2018-02-14T16:03:22.596Z,6.90
2018-02-14T16:05:50.906Z,6.80
2018-02-14T16:08:19.210Z,6.70
2018-02-14T16:10:47.539Z,6.70
2018-02-14T16:13:15.961Z,6.60
2018-02-14T16:15:44.284Z,6.60
2018-02-14T16:18:12.591Z,6.60
2018-02-14T16:20:41.008Z,6.50
2018-02-14T16:23:09.386Z,6.50
2018-02-14T16:25:37.673Z,6.40
2018-02-14T16:28:06.770Z,6.30
2018-02-14T16:30:35.084Z,6.30
2018-02-14T16:33:04.254Z,6.30
2018-02-14T16:35:33.325Z,6.20
2018-02-14T16:38:01.690Z,6.20
2018-02-14T16:40:29.995Z,6.20
2018-02-14T16:42:58.340Z,6.10
2018-02-14T16:45:26.655Z,6.10
2018-02-14T16:47:54.984Z,6.10
2018-02-14T16:50:24.116Z,6.00
2018-02-14T16:52:52.468Z,6.00
2018-02-14T16:55:21.604Z,6.00
2018-02-14T16:57:49.961Z,6.00
2018-02-14T17:00:19.015Z,6.00
2018-02-14T17:02:47.327Z,6.00
2018-02-14T17:05:15.649Z,6.00
2018-02-14T17:07:43.945Z,6.00
2018-02-14T17:10:12.255Z,6.00
2018-02-14T17:12:40.602Z,6.00
2018-02-14T17:15:08.946Z,6.00
2018-02-14T17:17:38.016Z,6.00
2018-02-14T17:20:06.320Z,6.00
2018-02-14T17:22:35.510Z,6.00
2018-02-14T17:25:04.722Z,6.00
2018-02-14T17:27:33.791Z,6.00
2018-02-14T17:30:02.132Z,6.00
2018-02-14T17:32:30.441Z,6.00
2018-02-14T17:34:58.736Z,6.00
2018-02-14T17:37:27.046Z,6.00
2018-02-14T17:39:55.372Z,6.00
2018-02-14T17:42:23.686Z,6.00
2018-02-14T17:44:53.503Z,6.00
2018-02-14T17:47:21.826Z,6.00
2018-02-14T17:49:50.912Z,6.00
2018-02-14T17:52:19.999Z,6.00
2018-02-14T17:54:48.338Z,6.00
2018-02-14T17:57:16.732Z,6.10
2018-02-14T17:59:45.026Z,6.10
2018-02-14T18:02:13.440Z,6.10
2018-02-14T18:04:42.522Z,6.10
2018-02-14T18:07:11.668Z,6.10
2018-02-14T18:09:39.983Z,6.10
2018-02-14T18:12:08.418Z,6.10
2018-02-14T18:14:37.504Z,6.10
2018-02-14T18:17:07.295Z,6.20
2018-02-14T18:19:35.616Z,6.10
2018-02-14T18:22:04.713Z,6.10
2018-02-14T18:24:33.771Z,6.10
2018-02-14T18:27:02.123Z,6.10
2018-02-14T18:29:30.433Z,6.10
2018-02-14T18:31:58.788Z,6.10
2018-02-14T18:34:27.111Z,6.10
2018-02-14T18:36:56.220Z,6.10
2018-02-14T18:39:24.558Z,6.10
2018-02-14T18:41:52.877Z,6.10
2018-02-14T18:44:21.183Z,6.10
2018-02-14T18:46:50.255Z,6.10
2018-02-14T18:49:19.384Z,6.10
2018-02-14T18:51:48.458Z,6.10
2018-02-14T18:54:17.563Z,6.10
2018-02-14T18:56:45.908Z,6.10
2018-02-14T18:59:14.199Z,6.10
2018-02-14T19:01:42.528Z,6.10
2018-02-14T19:04:10.865Z,6.20
2018-02-14T19:06:39.201Z,6.20
2018-02-14T19:09:07.541Z,6.20
2018-02-14T19:11:35.906Z,6.20
2018-02-14T19:14:04.220Z,6.20
2018-02-14T19:16:33.330Z,6.20
2018-02-14T19:19:02.621Z,6.20
2018-02-14T19:21:31.025Z,6.20
2018-02-14T19:24:00.109Z,6.20
2018-02-14T19:26:29.198Z,6.10
2018-02-14T19:28:58.286Z,6.10
2018-02-14T19:31:26.602Z,6.10
2018-02-14T19:33:55.735Z,6.10
2018-02-14T19:36:24.409Z,6.10
2018-02-14T19:38:52.743Z,6.10
2018-02-14T19:41:22.599Z,6.10
2018-02-14T19:43:50.905Z,6.00
2018-02-14T19:46:19.273Z,6.00
2018-02-14T19:48:47.598Z,6.00
2018-02-14T19:51:15.935Z,6.10
2018-02-14T19:53:44.270Z,6.10
2018-02-14T19:56:12.642Z,6.10
2018-02-14T19:58:41.006Z,6.00
2018-02-14T20:01:09.343Z,6.00
2018-02-14T20:03:38.430Z,6.00
2018-02-14T20:06:06.760Z,6.00
2018-02-14T20:08:35.057Z,6.00
2018-02-14T20:11:03.368Z,6.10
2018-02-14T20:13:31.654Z,6.00
2018-02-14T20:16:01.487Z,6.00
2018-02-14T20:18:30.577Z,6.00
2018-02-14T20:20:59.663Z,6.00
2018-02-14T20:23:28.809Z,6.00
2018-02-14T20:25:57.145Z,6.00
2018-02-14T20:28:25.480Z,6.00
2018-02-14T20:30:53.798Z,6.00
2018-02-14T20:33:22.905Z,6.00
2018-02-14T20:35:51.211Z,6.00
2018-02-14T20:38:20.543Z,6.10
2018-02-14T20:40:48.856Z,6.10
2018-02-14T20:43:17.168Z,6.10
2018-02-14T20:45:46.247Z,6.10
2018-02-14T20:48:14.706Z,6.00
2018-02-14T20:50:43.055Z,6.00
2018-02-14T20:53:11.443Z,6.00
2018-02-14T20:55:39.763Z,6.00
2018-02-14T20:58:08.088Z,6.00
2018-02-14T21:00:37.174Z,6.00
2018-02-14T21:03:06.275Z,6.00
2018-02-14T21:05:35.379Z,6.00
2018-02-14T21:08:03.697Z,6.00
2018-02-14T21:10:32.049Z,6.00
2018-02-14T21:13:01.143Z,6.00
2018-02-14T21:15:30.216Z,6.00
2018-02-14T21:17:58.553Z,6.00
2018-02-14T21:20:26.887Z,6.00
2018-02-14T21:22:55.963Z,6.00
2018-02-14T21:25:24.250Z,6.00
2018-02-14T21:27:52.548Z,6.00
2018-02-14T21:30:20.850Z,6.00
2018-02-14T21:32:49.195Z,6.00
2018-02-14T21:35:17.507Z,6.00
2018-02-14T21:37:45.839Z,6.00
2018-02-14T21:40:14.165Z,6.00
2018-02-14T21:42:42.569Z,6.00
2018-02-14T21:45:11.027Z,5.90
2018-02-14T21:47:39.343Z,5.90
2018-02-14T21:50:08.439Z,5.90
2018-02-14T21:52:36.762Z,5.90
2018-02-14T21:55:05.802Z,5.80
2018-02-14T21:57:34.903Z,5.80
2018-02-14T22:00:03.997Z,5.80
2018-02-14T22:02:32.400Z,5.80
2018-02-14T22:05:01.515Z,5.70
2018-02-14T22:07:29.854Z,5.70
2018-02-14T22:09:58.172Z,5.70
2018-02-14T22:12:27.324Z,5.70
2018-02-14T22:14:55.676Z,5.70
2018-02-14T22:17:24.031Z,5.70
2018-02-14T22:19:52.360Z,5.70
2018-02-14T22:22:20.721Z,5.70
2018-02-14T22:24:49.039Z,5.60
2018-02-14T22:27:17.367Z,5.60
2018-02-14T22:29:46.451Z,5.60
2018-02-14T22:32:15.591Z,5.60
2018-02-14T22:34:43.942Z,5.60
2018-02-14T22:37:12.223Z,5.60
2018-02-14T22:39:40.875Z,5.60
2018-02-14T22:42:09.182Z,5.60
2018-02-14T22:44:37.649Z,5.60
2018-02-14T22:47:05.964Z,5.60
2018-02-14T22:49:35.025Z,5.50
2018-02-14T22:52:03.328Z,5.50
2018-02-14T22:54:32.658Z,5.50
2018-02-14T22:57:00.981Z,5.50
2018-02-14T22:59:29.298Z,5.50
2018-02-14T23:01:58.364Z,5.50
2018-02-14T23:04:26.690Z,5.50
2018-02-14T23:06:55.020Z,5.50
2018-02-14T23:09:23.331Z,5.50
2018-02-14T23:11:51.632Z,5.50
2018-02-14T23:14:20.745Z,5.50
2018-02-14T23:16:49.063Z,5.50
2018-02-14T23:19:17.372Z,5.50
2018-02-14T23:21:46.465Z,5.50
2018-02-14T23:24:14.751Z,5.50
2018-02-14T23:26:43.053Z,5.50
2018-02-14T23:29:12.122Z,5.50
2018-02-14T23:31:40.426Z,5.40
2018-02-14T23:34:08.746Z,5.50
2018-02-14T23:36:37.122Z,5.50
2018-02-14T23:39:05.432Z,5.50
2018-02-14T23:41:33.731Z,5.50
2018-02-14T23:44:02.040Z,5.50
2018-02-14T23:46:30.346Z,5.50
2018-02-14T23:48:58.704Z,5.50
2018-02-14T23:51:27.797Z,5.50
2018-02-14T23:53:56.160Z,5.50
2018-02-14T23:56:24.478Z,5.50
2018-02-14T23:58:53.542Z,5.50
